sensor_id;sensor_type;location;lat;lon;timestamp;temperature;humidity
63899;HTU21D;50070;-32.946;-60.652;2023-06-10T00:00:07;16.56;38.57
63899;HTU21D;50070;-32.946;-60.652;2023-06-10T00:02:34;16.13;39.46
63899;HTU21D;50070;-32.946;-60.652;2023-06-10T00:05:01;16.40;39.17
63899;HTU21D;50070;-32.946;-60.652;2023-06-10T00:07:28;16.48;39.05
63899;HTU21D;50070;-32.946;-60.652;2023-06-10T00:09:55;16.27;39.19
63899;HTU21D;50070;-32.946;-60.652;2023-06-10T00:12:23;16.25;39.07
63899;HTU21D;50070;-32.946;-60.652;2023-06-10T00:14:50;16.21;39.08
63899;HTU21D;50070;-32.946;-60.652;2023-06-10T00:17:17;15.99;39.54
63899;HTU21D;50070;-32.946;-60.652;2023-06-10T00:19:44;16.12;39.38
63899;HTU21D;50070;-32.946;-60.652;2023-06-10T00:22:13;16.02;39.32
63899;HTU21D;50070;-32.946;-60.652;2023-06-10T00:24:40;16.06;39.30
63899;HTU21D;50070;-32.946;-60.652;2023-06-10T00:27:07;16.03;39.65
63899;HTU21D;50070;-32.946;-60.652;2023-06-10T00:29:34;16.00;39.49
63899;HTU21D;50070;-32.946;-60.652;2023-06-10T00:32:01;15.75;40.15
63899;HTU21D;50070;-32.946;-60.652;2023-06-10T00:34:27;15.58;40.46
63899;HTU21D;50070;-32.946;-60.652;2023-06-10T00:36:54;15.45;40.85
63899;HTU21D;50070;-32.946;-60.652;2023-06-10T00:39:21;15.82;40.23
63899;HTU21D;50070;-32.946;-60.652;2023-06-10T00:41:48;15.75;40.17
63899;HTU21D;50070;-32.946;-60.652;2023-06-10T00:44:15;15.62;40.74
63899;HTU21D;50070;-32.946;-60.652;2023-06-10T00:46:42;15.63;40.60
63899;HTU21D;50070;-32.946;-60.652;2023-06-10T00:49:09;15.68;40.51
63899;HTU21D;50070;-32.946;-60.652;2023-06-10T00:51:36;15.54;41.25
63899;HTU21D;50070;-32.946;-60.652;2023-06-10T00:54:03;15.85;40.65
63899;HTU21D;50070;-32.946;-60.652;2023-06-10T00:56:31;15.80;40.62
63899;HTU21D;50070;-32.946;-60.652;2023-06-10T00:59:01;15.96;40.38
63899;HTU21D;50070;-32.946;-60.652;2023-06-10T01:01:28;15.34;41.84
63899;HTU21D;50070;-32.946;-60.652;2023-06-10T01:03:55;15.42;41.76
63899;HTU21D;50070;-32.946;-60.652;2023-06-10T01:09:38;15.43;41.84
63899;HTU21D;50070;-32.946;-60.652;2023-06-10T01:12:23;15.21;42.40
63899;HTU21D;50070;-32.946;-60.652;2023-06-10T01:14:54;15.47;41.81
63899;HTU21D;50070;-32.946;-60.652;2023-06-10T01:17:21;15.47;41.88
63899;HTU21D;50070;-32.946;-60.652;2023-06-10T01:19:57;15.75;41.91
63899;HTU21D;50070;-32.946;-60.652;2023-06-10T01:22:25;15.67;41.41
63899;HTU21D;50070;-32.946;-60.652;2023-06-10T01:24:57;15.13;42.53
63899;HTU21D;50070;-32.946;-60.652;2023-06-10T01:27:28;15.06;42.67
63899;HTU21D;50070;-32.946;-60.652;2023-06-10T01:30:08;14.87;43.27
63899;HTU21D;50070;-32.946;-60.652;2023-06-10T01:32:43;15.27;42.58
63899;HTU21D;50070;-32.946;-60.652;2023-06-10T01:35:10;15.59;41.57
63899;HTU21D;50070;-32.946;-60.652;2023-06-10T01:37:39;15.69;41.65
63899;HTU21D;50070;-32.946;-60.652;2023-06-10T01:40:06;15.13;42.52
63899;HTU21D;50070;-32.946;-60.652;2023-06-10T01:42:33;14.98;42.58
63899;HTU21D;50070;-32.946;-60.652;2023-06-10T01:45:00;15.08;43.04
63899;HTU21D;50070;-32.946;-60.652;2023-06-10T01:47:27;15.30;42.36
63899;HTU21D;50070;-32.946;-60.652;2023-06-10T01:49:54;15.32;42.05
63899;HTU21D;50070;-32.946;-60.652;2023-06-10T01:52:21;15.02;42.82
63899;HTU21D;50070;-32.946;-60.652;2023-06-10T01:54:48;15.15;42.70
63899;HTU21D;50070;-32.946;-60.652;2023-06-10T01:57:15;15.40;42.27
63899;HTU21D;50070;-32.946;-60.652;2023-06-10T01:59:42;14.84;43.56
63899;HTU21D;50070;-32.946;-60.652;2023-06-10T02:02:10;14.70;43.90
63899;HTU21D;50070;-32.946;-60.652;2023-06-10T02:04:37;14.85;43.82
63899;HTU21D;50070;-32.946;-60.652;2023-06-10T02:07:04;14.69;44.10
63899;HTU21D;50070;-32.946;-60.652;2023-06-10T02:09:32;14.51;44.53
63899;HTU21D;50070;-32.946;-60.652;2023-06-10T02:12:02;14.54;44.45
63899;HTU21D;50070;-32.946;-60.652;2023-06-10T02:14:31;14.91;43.62
63899;HTU21D;50070;-32.946;-60.652;2023-06-10T02:16:58;14.57;44.46
63899;HTU21D;50070;-32.946;-60.652;2023-06-10T02:19:25;14.80;43.93
63899;HTU21D;50070;-32.946;-60.652;2023-06-10T02:21:53;14.80;43.74
63899;HTU21D;50070;-32.946;-60.652;2023-06-10T02:24:20;15.04;43.40
63899;HTU21D;50070;-32.946;-60.652;2023-06-10T02:26:47;14.74;42.80
63899;HTU21D;50070;-32.946;-60.652;2023-06-10T02:29:14;14.93;43.13
63899;HTU21D;50070;-32.946;-60.652;2023-06-10T02:31:40;15.11;43.07
63899;HTU21D;50070;-32.946;-60.652;2023-06-10T02:34:07;14.66;44.38
63899;HTU21D;50070;-32.946;-60.652;2023-06-10T02:36:34;14.50;44.42
63899;HTU21D;50070;-32.946;-60.652;2023-06-10T02:39:02;14.56;45.02
63899;HTU21D;50070;-32.946;-60.652;2023-06-10T02:41:30;14.33;45.51
63899;HTU21D;50070;-32.946;-60.652;2023-06-10T02:43:57;14.51;45.48
63899;HTU21D;50070;-32.946;-60.652;2023-06-10T02:46:24;14.72;44.82
63899;HTU21D;50070;-32.946;-60.652;2023-06-10T02:48:50;14.35;46.00
63899;HTU21D;50070;-32.946;-60.652;2023-06-10T02:51:18;14.62;45.17
63899;HTU21D;50070;-32.946;-60.652;2023-06-10T02:53:44;14.53;45.35
63899;HTU21D;50070;-32.946;-60.652;2023-06-10T02:56:11;14.78;45.04
63899;HTU21D;50070;-32.946;-60.652;2023-06-10T02:58:38;14.53;45.30
63899;HTU21D;50070;-32.946;-60.652;2023-06-10T03:01:05;14.94;44.66
63899;HTU21D;50070;-32.946;-60.652;2023-06-10T03:03:32;15.02;44.22
63899;HTU21D;50070;-32.946;-60.652;2023-06-10T03:06:00;14.77;44.54
63899;HTU21D;50070;-32.946;-60.652;2023-06-10T03:08:26;14.51;45.22
63899;HTU21D;50070;-32.946;-60.652;2023-06-10T03:10:53;14.68;45.02
63899;HTU21D;50070;-32.946;-60.652;2023-06-10T03:13:20;14.36;45.61
63899;HTU21D;50070;-32.946;-60.652;2023-06-10T03:15:47;14.30;45.98
63899;HTU21D;50070;-32.946;-60.652;2023-06-10T03:18:14;14.37;45.80
63899;HTU21D;50070;-32.946;-60.652;2023-06-10T03:20:41;14.49;45.61
63899;HTU21D;50070;-32.946;-60.652;2023-06-10T03:23:08;14.42;46.09
63899;HTU21D;50070;-32.946;-60.652;2023-06-10T03:25:35;14.38;46.16
63899;HTU21D;50070;-32.946;-60.652;2023-06-10T03:28:02;14.43;45.98
63899;HTU21D;50070;-32.946;-60.652;2023-06-10T03:30:28;14.45;45.86
63899;HTU21D;50070;-32.946;-60.652;2023-06-10T03:32:55;14.43;45.68
63899;HTU21D;50070;-32.946;-60.652;2023-06-10T03:35:22;14.62;45.46
63899;HTU21D;50070;-32.946;-60.652;2023-06-10T03:37:48;14.73;45.22
63899;HTU21D;50070;-32.946;-60.652;2023-06-10T03:40:15;14.57;45.66
63899;HTU21D;50070;-32.946;-60.652;2023-06-10T03:42:42;14.51;45.67
63899;HTU21D;50070;-32.946;-60.652;2023-06-10T03:45:10;14.33;46.16
63899;HTU21D;50070;-32.946;-60.652;2023-06-10T03:47:37;14.18;46.77
63899;HTU21D;50070;-32.946;-60.652;2023-06-10T03:50:06;14.66;45.88
63899;HTU21D;50070;-32.946;-60.652;2023-06-10T03:52:34;14.53;45.55
63899;HTU21D;50070;-32.946;-60.652;2023-06-10T03:55:02;14.45;45.94
63899;HTU21D;50070;-32.946;-60.652;2023-06-10T03:57:29;14.80;45.18
63899;HTU21D;50070;-32.946;-60.652;2023-06-10T03:59:56;14.84;45.27
63899;HTU21D;50070;-32.946;-60.652;2023-06-10T04:02:23;14.59;45.96
63899;HTU21D;50070;-32.946;-60.652;2023-06-10T04:04:49;14.96;45.05
63899;HTU21D;50070;-32.946;-60.652;2023-06-10T04:07:17;14.83;45.48
63899;HTU21D;50070;-32.946;-60.652;2023-06-10T04:09:47;14.74;45.59
63899;HTU21D;50070;-32.946;-60.652;2023-06-10T04:12:14;14.74;45.82
63899;HTU21D;50070;-32.946;-60.652;2023-06-10T04:14:40;14.25;47.10
63899;HTU21D;50070;-32.946;-60.652;2023-06-10T04:17:08;14.84;45.94
63899;HTU21D;50070;-32.946;-60.652;2023-06-10T04:19:35;14.57;46.30
63899;HTU21D;50070;-32.946;-60.652;2023-06-10T04:22:02;14.35;47.04
63899;HTU21D;50070;-32.946;-60.652;2023-06-10T04:24:32;14.28;47.27
63899;HTU21D;50070;-32.946;-60.652;2023-06-10T04:26:59;14.51;46.83
63899;HTU21D;50070;-32.946;-60.652;2023-06-10T04:29:26;14.77;47.01
63899;HTU21D;50070;-32.946;-60.652;2023-06-10T04:31:54;14.36;48.02
63899;HTU21D;50070;-32.946;-60.652;2023-06-10T04:34:21;14.52;47.40
63899;HTU21D;50070;-32.946;-60.652;2023-06-10T04:36:47;14.60;47.18
63899;HTU21D;50070;-32.946;-60.652;2023-06-10T04:39:14;14.01;48.40
63899;HTU21D;50070;-32.946;-60.652;2023-06-10T04:41:42;14.24;48.03
63899;HTU21D;50070;-32.946;-60.652;2023-06-10T04:44:09;14.27;48.38
63899;HTU21D;50070;-32.946;-60.652;2023-06-10T04:46:37;14.67;47.41
63899;HTU21D;50070;-32.946;-60.652;2023-06-10T04:49:03;14.42;47.41
63899;HTU21D;50070;-32.946;-60.652;2023-06-10T04:51:31;14.08;48.06
63899;HTU21D;50070;-32.946;-60.652;2023-06-10T04:53:58;14.41;47.35
63899;HTU21D;50070;-32.946;-60.652;2023-06-10T04:56:30;14.35;47.56
63899;HTU21D;50070;-32.946;-60.652;2023-06-10T04:58:57;13.79;48.71
63899;HTU21D;50070;-32.946;-60.652;2023-06-10T05:01:24;13.96;48.55
63899;HTU21D;50070;-32.946;-60.652;2023-06-10T05:03:51;14.19;47.86
63899;HTU21D;50070;-32.946;-60.652;2023-06-10T05:06:18;14.39;47.34
63899;HTU21D;50070;-32.946;-60.652;2023-06-10T05:08:44;13.93;49.07
63899;HTU21D;50070;-32.946;-60.652;2023-06-10T05:11:11;13.71;49.22
63899;HTU21D;50070;-32.946;-60.652;2023-06-10T05:13:37;14.17;48.90
63899;HTU21D;50070;-32.946;-60.652;2023-06-10T05:16:06;13.73;49.40
63899;HTU21D;50070;-32.946;-60.652;2023-06-10T05:18:33;13.98;48.98
63899;HTU21D;50070;-32.946;-60.652;2023-06-10T05:21:01;13.78;49.53
63899;HTU21D;50070;-32.946;-60.652;2023-06-10T05:23:28;13.99;49.39
63899;HTU21D;50070;-32.946;-60.652;2023-06-10T05:25:55;13.65;49.99
63899;HTU21D;50070;-32.946;-60.652;2023-06-10T05:28:22;13.30;51.23
63899;HTU21D;50070;-32.946;-60.652;2023-06-10T05:30:48;13.24;51.62
63899;HTU21D;50070;-32.946;-60.652;2023-06-10T05:33:15;13.53;50.98
63899;HTU21D;50070;-32.946;-60.652;2023-06-10T05:35:42;13.71;50.25
63899;HTU21D;50070;-32.946;-60.652;2023-06-10T05:38:09;14.03;49.81
63899;HTU21D;50070;-32.946;-60.652;2023-06-10T05:40:36;14.01;50.32
63899;HTU21D;50070;-32.946;-60.652;2023-06-10T05:43:04;13.63;50.82
63899;HTU21D;50070;-32.946;-60.652;2023-06-10T05:45:30;13.20;51.64
63899;HTU21D;50070;-32.946;-60.652;2023-06-10T05:47:57;13.37;51.56
63899;HTU21D;50070;-32.946;-60.652;2023-06-10T05:50:24;13.59;50.97
63899;HTU21D;50070;-32.946;-60.652;2023-06-10T05:52:51;13.82;50.63
63899;HTU21D;50070;-32.946;-60.652;2023-06-10T05:55:19;13.82;50.59
63899;HTU21D;50070;-32.946;-60.652;2023-06-10T05:57:46;13.59;51.58
63899;HTU21D;50070;-32.946;-60.652;2023-06-10T06:00:13;13.62;51.14
63899;HTU21D;50070;-32.946;-60.652;2023-06-10T06:02:40;13.56;52.04
63899;HTU21D;50070;-32.946;-60.652;2023-06-10T06:05:07;13.44;52.34
63899;HTU21D;50070;-32.946;-60.652;2023-06-10T06:07:34;13.23;52.99
63899;HTU21D;50070;-32.946;-60.652;2023-06-10T06:10:02;13.56;52.26
63899;HTU21D;50070;-32.946;-60.652;2023-06-10T06:12:28;13.11;53.78
63899;HTU21D;50070;-32.946;-60.652;2023-06-10T06:14:55;13.30;53.49
63899;HTU21D;50070;-32.946;-60.652;2023-06-10T06:17:22;13.10;54.60
63899;HTU21D;50070;-32.946;-60.652;2023-06-10T06:19:49;13.16;54.43
63899;HTU21D;50070;-32.946;-60.652;2023-06-10T06:22:15;13.45;53.81
63899;HTU21D;50070;-32.946;-60.652;2023-06-10T06:24:46;12.92;55.45
63899;HTU21D;50070;-32.946;-60.652;2023-06-10T06:27:13;13.14;55.00
63899;HTU21D;50070;-32.946;-60.652;2023-06-10T06:29:40;13.15;55.25
63899;HTU21D;50070;-32.946;-60.652;2023-06-10T06:32:07;13.04;55.68
63899;HTU21D;50070;-32.946;-60.652;2023-06-10T06:34:33;13.29;55.45
63899;HTU21D;50070;-32.946;-60.652;2023-06-10T06:37:00;13.40;54.32
63899;HTU21D;50070;-32.946;-60.652;2023-06-10T06:39:27;13.22;54.86
63899;HTU21D;50070;-32.946;-60.652;2023-06-10T06:41:54;13.23;55.10
63899;HTU21D;50070;-32.946;-60.652;2023-06-10T06:44:20;13.29;55.23
63899;HTU21D;50070;-32.946;-60.652;2023-06-10T06:46:47;13.43;54.84
63899;HTU21D;50070;-32.946;-60.652;2023-06-10T06:49:14;13.14;55.61
63899;HTU21D;50070;-32.946;-60.652;2023-06-10T06:51:41;13.22;55.52
63899;HTU21D;50070;-32.946;-60.652;2023-06-10T06:54:08;13.35;55.13
63899;HTU21D;50070;-32.946;-60.652;2023-06-10T06:56:34;13.23;55.76
63899;HTU21D;50070;-32.946;-60.652;2023-06-10T06:59:01;13.55;54.53
63899;HTU21D;50070;-32.946;-60.652;2023-06-10T07:01:28;13.67;54.78
63899;HTU21D;50070;-32.946;-60.652;2023-06-10T07:03:55;13.32;55.65
63899;HTU21D;50070;-32.946;-60.652;2023-06-10T07:06:22;13.45;54.59
63899;HTU21D;50070;-32.946;-60.652;2023-06-10T07:08:49;12.99;57.36
63899;HTU21D;50070;-32.946;-60.652;2023-06-10T07:11:17;13.01;57.57
63899;HTU21D;50070;-32.946;-60.652;2023-06-10T07:13:43;13.05;57.42
63899;HTU21D;50070;-32.946;-60.652;2023-06-10T07:16:10;12.89;58.23
63899;HTU21D;50070;-32.946;-60.652;2023-06-10T07:18:37;12.73;60.03
63899;HTU21D;50070;-32.946;-60.652;2023-06-10T07:21:04;12.88;59.96
63899;HTU21D;50070;-32.946;-60.652;2023-06-10T07:23:31;13.14;57.93
63899;HTU21D;50070;-32.946;-60.652;2023-06-10T07:25:57;12.96;58.73
63899;HTU21D;50070;-32.946;-60.652;2023-06-10T07:28:24;13.30;57.86
63899;HTU21D;50070;-32.946;-60.652;2023-06-10T07:30:51;13.50;56.64
63899;HTU21D;50070;-32.946;-60.652;2023-06-10T07:33:18;13.80;55.56
63899;HTU21D;50070;-32.946;-60.652;2023-06-10T07:35:45;13.44;56.03
63899;HTU21D;50070;-32.946;-60.652;2023-06-10T07:38:11;13.14;57.15
63899;HTU21D;50070;-32.946;-60.652;2023-06-10T07:40:38;13.38;56.03
63899;HTU21D;50070;-32.946;-60.652;2023-06-10T07:43:05;12.86;58.39
63899;HTU21D;50070;-32.946;-60.652;2023-06-10T07:45:32;13.19;56.82
63899;HTU21D;50070;-32.946;-60.652;2023-06-10T07:47:59;13.30;56.45
63899;HTU21D;50070;-32.946;-60.652;2023-06-10T07:50:25;12.92;58.06
63899;HTU21D;50070;-32.946;-60.652;2023-06-10T07:52:52;13.01;57.10
63899;HTU21D;50070;-32.946;-60.652;2023-06-10T07:55:18;12.97;57.09
63899;HTU21D;50070;-32.946;-60.652;2023-06-10T07:57:45;13.09;56.57
63899;HTU21D;50070;-32.946;-60.652;2023-06-10T08:00:12;12.84;56.62
63899;HTU21D;50070;-32.946;-60.652;2023-06-10T08:02:39;12.76;57.49
63899;HTU21D;50070;-32.946;-60.652;2023-06-10T08:05:06;12.72;55.71
63899;HTU21D;50070;-32.946;-60.652;2023-06-10T08:07:33;12.62;56.39
63899;HTU21D;50070;-32.946;-60.652;2023-06-10T08:10:01;12.42;57.30
63899;HTU21D;50070;-32.946;-60.652;2023-06-10T08:12:28;12.93;55.53
63899;HTU21D;50070;-32.946;-60.652;2023-06-10T08:14:55;12.76;55.33
63899;HTU21D;50070;-32.946;-60.652;2023-06-10T08:17:22;12.38;56.27
63899;HTU21D;50070;-32.946;-60.652;2023-06-10T08:19:49;12.57;55.58
63899;HTU21D;50070;-32.946;-60.652;2023-06-10T08:22:16;12.89;54.58
63899;HTU21D;50070;-32.946;-60.652;2023-06-10T08:24:43;12.74;54.91
63899;HTU21D;50070;-32.946;-60.652;2023-06-10T08:27:10;12.70;54.40
63899;HTU21D;50070;-32.946;-60.652;2023-06-10T08:29:37;12.49;55.26
63899;HTU21D;50070;-32.946;-60.652;2023-06-10T08:32:04;12.49;55.52
63899;HTU21D;50070;-32.946;-60.652;2023-06-10T08:34:33;12.70;54.45
63899;HTU21D;50070;-32.946;-60.652;2023-06-10T08:37:03;12.31;55.94
63899;HTU21D;50070;-32.946;-60.652;2023-06-10T08:39:30;13.05;53.90
63899;HTU21D;50070;-32.946;-60.652;2023-06-10T08:44:55;12.97;53.08
63899;HTU21D;50070;-32.946;-60.652;2023-06-10T08:47:25;12.77;53.38
63899;HTU21D;50070;-32.946;-60.652;2023-06-10T08:49:55;12.34;55.27
63899;HTU21D;50070;-32.946;-60.652;2023-06-10T08:52:26;12.37;55.53
63899;HTU21D;50070;-32.946;-60.652;2023-06-10T08:55:07;12.49;54.70
63899;HTU21D;50070;-32.946;-60.652;2023-06-10T08:57:37;12.72;53.56
63899;HTU21D;50070;-32.946;-60.652;2023-06-10T09:00:05;12.29;54.77
63899;HTU21D;50070;-32.946;-60.652;2023-06-10T09:02:33;12.50;54.67
63899;HTU21D;50070;-32.946;-60.652;2023-06-10T09:05:02;12.67;54.19
63899;HTU21D;50070;-32.946;-60.652;2023-06-10T09:07:31;12.62;54.83
63899;HTU21D;50070;-32.946;-60.652;2023-06-10T09:09:58;12.81;54.05
63899;HTU21D;50070;-32.946;-60.652;2023-06-10T09:12:25;12.51;55.71
63899;HTU21D;50070;-32.946;-60.652;2023-06-10T09:14:52;12.89;55.24
63899;HTU21D;50070;-32.946;-60.652;2023-06-10T09:17:19;12.96;54.64
63899;HTU21D;50070;-32.946;-60.652;2023-06-10T09:19:46;12.57;56.43
63899;HTU21D;50070;-32.946;-60.652;2023-06-10T09:22:12;12.93;55.55
63899;HTU21D;50070;-32.946;-60.652;2023-06-10T09:24:40;13.11;55.81
63899;HTU21D;50070;-32.946;-60.652;2023-06-10T09:27:08;13.11;55.56
63899;HTU21D;50070;-32.946;-60.652;2023-06-10T09:29:53;13.08;56.13
63899;HTU21D;50070;-32.946;-60.652;2023-06-10T09:32:21;12.85;56.48
63899;HTU21D;50070;-32.946;-60.652;2023-06-10T09:34:48;13.15;56.05
63899;HTU21D;50070;-32.946;-60.652;2023-06-10T09:37:23;12.91;57.05
63899;HTU21D;50070;-32.946;-60.652;2023-06-10T09:40:07;12.65;57.90
63899;HTU21D;50070;-32.946;-60.652;2023-06-10T09:42:37;13.01;56.82
63899;HTU21D;50070;-32.946;-60.652;2023-06-10T09:45:05;12.91;56.69
63899;HTU21D;50070;-32.946;-60.652;2023-06-10T09:47:33;12.89;56.78
63899;HTU21D;50070;-32.946;-60.652;2023-06-10T09:50:00;12.91;55.93
63899;HTU21D;50070;-32.946;-60.652;2023-06-10T09:52:29;12.90;55.68
63899;HTU21D;50070;-32.946;-60.652;2023-06-10T09:55:02;12.38;57.41
63899;HTU21D;50070;-32.946;-60.652;2023-06-10T09:57:32;12.65;56.76
63899;HTU21D;50070;-32.946;-60.652;2023-06-10T09:59:59;12.56;56.43
63899;HTU21D;50070;-32.946;-60.652;2023-06-10T10:02:26;12.88;55.51
63899;HTU21D;50070;-32.946;-60.652;2023-06-10T10:04:52;12.75;55.34
63899;HTU21D;50070;-32.946;-60.652;2023-06-10T10:07:19;12.67;55.67
63899;HTU21D;50070;-32.946;-60.652;2023-06-10T10:09:46;12.80;55.36
63899;HTU21D;50070;-32.946;-60.652;2023-06-10T10:12:15;12.99;54.98
63899;HTU21D;50070;-32.946;-60.652;2023-06-10T10:14:46;12.57;55.54
63899;HTU21D;50070;-32.946;-60.652;2023-06-10T10:17:15;12.55;55.32
63899;HTU21D;50070;-32.946;-60.652;2023-06-10T10:19:53;12.82;53.85
63899;HTU21D;50070;-32.946;-60.652;2023-06-10T10:22:36;12.30;55.23
63899;HTU21D;50070;-32.946;-60.652;2023-06-10T10:25:12;12.74;53.79
63899;HTU21D;50070;-32.946;-60.652;2023-06-10T10:27:52;12.86;53.65
63899;HTU21D;50070;-32.946;-60.652;2023-06-10T10:30:21;12.20;55.43
63899;HTU21D;50070;-32.946;-60.652;2023-06-10T10:33:05;12.55;54.40
63899;HTU21D;50070;-32.946;-60.652;2023-06-10T10:35:34;12.76;53.71
63899;HTU21D;50070;-32.946;-60.652;2023-06-10T10:38:02;12.88;53.07
63899;HTU21D;50070;-32.946;-60.652;2023-06-10T10:40:31;12.45;55.03
63899;HTU21D;50070;-32.946;-60.652;2023-06-10T10:42:59;12.88;54.23
63899;HTU21D;50070;-32.946;-60.652;2023-06-10T10:45:30;12.67;54.01
63899;HTU21D;50070;-32.946;-60.652;2023-06-10T10:47:57;12.41;55.09
63899;HTU21D;50070;-32.946;-60.652;2023-06-10T10:50:28;12.21;56.03
63899;HTU21D;50070;-32.946;-60.652;2023-06-10T10:53:02;12.08;56.71
63899;HTU21D;50070;-32.946;-60.652;2023-06-10T10:55:29;12.13;56.52
63899;HTU21D;50070;-32.946;-60.652;2023-06-10T10:58:02;12.33;56.00
63899;HTU21D;50070;-32.946;-60.652;2023-06-10T11:03:08;12.38;55.27
63899;HTU21D;50070;-32.946;-60.652;2023-06-10T11:05:47;12.14;56.49
63899;HTU21D;50070;-32.946;-60.652;2023-06-10T11:11:00;12.22;56.84
63899;HTU21D;50070;-32.946;-60.652;2023-06-10T11:13:27;12.45;56.36
63899;HTU21D;50070;-32.946;-60.652;2023-06-10T11:15:57;12.31;57.34
63899;HTU21D;50070;-32.946;-60.652;2023-06-10T11:18:29;12.59;56.40
63899;HTU21D;50070;-32.946;-60.652;2023-06-10T11:21:00;12.63;56.43
63899;HTU21D;50070;-32.946;-60.652;2023-06-10T11:29:05;12.82;56.39
63899;HTU21D;50070;-32.946;-60.652;2023-06-10T11:31:42;12.60;57.65
63899;HTU21D;50070;-32.946;-60.652;2023-06-10T11:34:10;12.46;58.67
63899;HTU21D;50070;-32.946;-60.652;2023-06-10T11:36:39;12.85;57.33
63899;HTU21D;50070;-32.946;-60.652;2023-06-10T11:39:09;12.76;57.60
63899;HTU21D;50070;-32.946;-60.652;2023-06-10T11:41:38;13.03;55.92
63899;HTU21D;50070;-32.946;-60.652;2023-06-10T11:44:12;13.15;55.63
63899;HTU21D;50070;-32.946;-60.652;2023-06-10T11:46:40;13.12;54.81
63899;HTU21D;50070;-32.946;-60.652;2023-06-10T11:49:08;13.26;53.47
63899;HTU21D;50070;-32.946;-60.652;2023-06-10T11:51:37;13.01;52.72
63899;HTU21D;50070;-32.946;-60.652;2023-06-10T11:54:05;13.11;52.10
63899;HTU21D;50070;-32.946;-60.652;2023-06-10T11:56:32;13.17;52.31
63899;HTU21D;50070;-32.946;-60.652;2023-06-10T11:59:04;13.38;52.20
63899;HTU21D;50070;-32.946;-60.652;2023-06-10T12:01:53;13.29;52.82
63899;HTU21D;50070;-32.946;-60.652;2023-06-10T12:04:19;13.09;53.69
63899;HTU21D;50070;-32.946;-60.652;2023-06-10T12:06:52;13.05;53.06
63899;HTU21D;50070;-32.946;-60.652;2023-06-10T12:09:29;12.93;53.72
63899;HTU21D;50070;-32.946;-60.652;2023-06-10T12:12:02;13.08;52.76
63899;HTU21D;50070;-32.946;-60.652;2023-06-10T12:14:54;13.23;52.63
63899;HTU21D;50070;-32.946;-60.652;2023-06-10T12:20:03;13.23;52.77
63899;HTU21D;50070;-32.946;-60.652;2023-06-10T12:22:43;13.25;53.14
63899;HTU21D;50070;-32.946;-60.652;2023-06-10T12:25:11;12.88;53.81
63899;HTU21D;50070;-32.946;-60.652;2023-06-10T12:27:39;13.00;52.65
63899;HTU21D;50070;-32.946;-60.652;2023-06-10T12:30:07;13.00;53.72
63899;HTU21D;50070;-32.946;-60.652;2023-06-10T12:32:45;13.10;52.63
63899;HTU21D;50070;-32.946;-60.652;2023-06-10T12:35:15;13.25;51.59
63899;HTU21D;50070;-32.946;-60.652;2023-06-10T12:37:55;13.53;51.76
63899;HTU21D;50070;-32.946;-60.652;2023-06-10T12:40:36;13.51;51.14
63899;HTU21D;50070;-32.946;-60.652;2023-06-10T12:43:04;13.44;52.10
63899;HTU21D;50070;-32.946;-60.652;2023-06-10T12:45:32;13.59;51.76
63899;HTU21D;50070;-32.946;-60.652;2023-06-10T12:48:06;13.61;51.92
63899;HTU21D;50070;-32.946;-60.652;2023-06-10T12:50:42;13.20;51.60
63899;HTU21D;50070;-32.946;-60.652;2023-06-10T12:53:10;13.35;51.85
63899;HTU21D;50070;-32.946;-60.652;2023-06-10T12:55:40;13.36;52.33
63899;HTU21D;50070;-32.946;-60.652;2023-06-10T12:58:06;13.68;51.72
63899;HTU21D;50070;-32.946;-60.652;2023-06-10T13:00:33;13.80;51.37
63899;HTU21D;50070;-32.946;-60.652;2023-06-10T13:03:01;13.75;50.79
63899;HTU21D;50070;-32.946;-60.652;2023-06-10T13:05:29;13.66;51.46
63899;HTU21D;50070;-32.946;-60.652;2023-06-10T13:07:56;13.47;53.30
63899;HTU21D;50070;-32.946;-60.652;2023-06-10T13:10:23;13.41;51.59
63899;HTU21D;50070;-32.946;-60.652;2023-06-10T13:12:50;13.63;51.66
63899;HTU21D;50070;-32.946;-60.652;2023-06-10T13:15:17;13.67;52.59
63899;HTU21D;50070;-32.946;-60.652;2023-06-10T13:17:44;13.67;53.70
63899;HTU21D;50070;-32.946;-60.652;2023-06-10T13:20:15;13.45;55.20
63899;HTU21D;50070;-32.946;-60.652;2023-06-10T13:22:42;13.59;55.45
63899;HTU21D;50070;-32.946;-60.652;2023-06-10T13:25:09;13.58;55.44
63899;HTU21D;50070;-32.946;-60.652;2023-06-10T13:27:36;13.61;54.77
63899;HTU21D;50070;-32.946;-60.652;2023-06-10T13:30:09;13.45;55.55
63899;HTU21D;50070;-32.946;-60.652;2023-06-10T13:32:36;13.50;56.09
63899;HTU21D;50070;-32.946;-60.652;2023-06-10T13:35:03;13.54;55.31
63899;HTU21D;50070;-32.946;-60.652;2023-06-10T13:37:30;13.78;54.63
63899;HTU21D;50070;-32.946;-60.652;2023-06-10T13:39:59;13.47;54.32
63899;HTU21D;50070;-32.946;-60.652;2023-06-10T13:42:26;13.62;52.33
63899;HTU21D;50070;-32.946;-60.652;2023-06-10T13:44:55;13.46;50.92
63899;HTU21D;50070;-32.946;-60.652;2023-06-10T13:47:22;13.31;50.21
63899;HTU21D;50070;-32.946;-60.652;2023-06-10T13:49:50;13.24;50.27
63899;HTU21D;50070;-32.946;-60.652;2023-06-10T13:52:17;13.27;49.73
63899;HTU21D;50070;-32.946;-60.652;2023-06-10T13:54:44;13.68;49.72
63899;HTU21D;50070;-32.946;-60.652;2023-06-10T13:57:11;13.73;47.85
63899;HTU21D;50070;-32.946;-60.652;2023-06-10T13:59:37;13.65;46.79
63899;HTU21D;50070;-32.946;-60.652;2023-06-10T14:02:05;13.24;46.78
63899;HTU21D;50070;-32.946;-60.652;2023-06-10T14:04:31;13.09;46.97
63899;HTU21D;50070;-32.946;-60.652;2023-06-10T14:06:58;13.44;46.05
63899;HTU21D;50070;-32.946;-60.652;2023-06-10T14:09:25;13.30;45.71
63899;HTU21D;50070;-32.946;-60.652;2023-06-10T14:11:51;13.31;47.07
63899;HTU21D;50070;-32.946;-60.652;2023-06-10T14:14:18;13.79;45.85
63899;HTU21D;50070;-32.946;-60.652;2023-06-10T14:16:45;13.22;46.74
63899;HTU21D;50070;-32.946;-60.652;2023-06-10T14:19:12;13.22;46.56
63899;HTU21D;50070;-32.946;-60.652;2023-06-10T14:21:38;13.58;46.02
63899;HTU21D;50070;-32.946;-60.652;2023-06-10T14:24:06;13.68;46.19
63899;HTU21D;50070;-32.946;-60.652;2023-06-10T14:26:33;13.84;46.08
63899;HTU21D;50070;-32.946;-60.652;2023-06-10T14:28:59;13.33;47.20
63899;HTU21D;50070;-32.946;-60.652;2023-06-10T14:31:28;13.41;46.67
63899;HTU21D;50070;-32.946;-60.652;2023-06-10T14:33:55;13.46;47.05
63899;HTU21D;50070;-32.946;-60.652;2023-06-10T14:36:22;13.63;45.90
63899;HTU21D;50070;-32.946;-60.652;2023-06-10T14:38:48;13.37;48.82
63899;HTU21D;50070;-32.946;-60.652;2023-06-10T14:41:15;13.08;46.64
63899;HTU21D;50070;-32.946;-60.652;2023-06-10T14:43:42;13.20;45.50
63899;HTU21D;50070;-32.946;-60.652;2023-06-10T14:46:09;13.40;44.93
63899;HTU21D;50070;-32.946;-60.652;2023-06-10T14:48:36;13.36;45.57
63899;HTU21D;50070;-32.946;-60.652;2023-06-10T14:51:02;13.25;45.95
63899;HTU21D;50070;-32.946;-60.652;2023-06-10T14:53:29;13.83;45.20
63899;HTU21D;50070;-32.946;-60.652;2023-06-10T14:55:56;13.92;44.45
63899;HTU21D;50070;-32.946;-60.652;2023-06-10T14:58:23;13.77;44.01
63899;HTU21D;50070;-32.946;-60.652;2023-06-10T15:00:50;13.76;42.25